Time;durP1;ratioP1;P1;durP2;ratioP2;P2;SDS_P1;SDS_P2;PMS_P1;PMS_P2;Temp;Humidity;BMP_temperature;BMP_pressure;BME280_temperature;BME280_humidity;BME280_pressure;Samples;Min_cycle;Max_cycle;Signal;HPM_P1;HPM_P2
2022/06/17 00:00:00;;;;;;;6.95;5.90;;;;;;;;;;5041934;28;20655;-73
2022/06/17 00:02:25;;;;;;;8.98;5.78;;;;;;;;;;5041069;28;20182;-73
2022/06/17 00:04:50;;;;;;;7.15;6.03;;;;;;;;;;5043157;28;20189;-73
2022/06/17 00:07:15;;;;;;;8.27;5.70;;;;;;;;;;5032886;28;20663;-73
2022/06/17 00:09:41;;;;;;;8.05;6.38;;;;;;;;;;5040594;28;20181;-75
2022/06/17 00:12:06;;;;;;;7.07;6.10;;;;;;;;;;5046104;28;20193;-73
2022/06/17 00:15:11;;;;;;;7.85;5.93;;;;;;;;;;5042885;28;20203;-72
2022/06/17 00:17:19;;;;;;;7.72;5.88;;;;;;;;;;5033361;28;20181;-73
2022/06/17 00:19:45;;;;;;;10.85;6.22;;;;;;;;;;5024260;28;20554;-72
2022/06/17 00:22:10;;;;;;;10.18;6.55;;;;;;;;;;5032356;28;20186;-72
2022/06/17 00:24:36;;;;;;;6.85;5.93;;;;;;;;;;5044429;28;20192;-72
2022/06/17 00:27:02;;;;;;;9.35;7.05;;;;;;;;;;5045140;28;20194;-74
2022/06/17 00:29:28;;;;;;;8.25;6.85;;;;;;;;;;5043837;28;20177;-72
2022/06/17 00:31:54;;;;;;;10.65;7.70;;;;;;;;;;5048794;28;20182;-72
2022/06/17 00:34:19;;;;;;;8.45;7.45;;;;;;;;;;5042960;28;20671;-73
2022/06/17 00:36:44;;;;;;;9.15;6.57;;;;;;;;;;5029527;28;20208;-72
2022/06/17 00:39:17;;;;;;;8.27;6.82;;;;;;;;;;5035376;28;20256;-75
2022/06/17 00:41:44;;;;;;;13.15;6.78;;;;;;;;;;5043651;28;20586;-72
2022/06/17 00:44:19;;;;;;;10.80;7.05;;;;;;;;;;5033850;28;20198;-72
2022/06/17 00:46:48;;;;;;;7.97;6.75;;;;;;;;;;5039926;28;20204;-75
2022/06/17 00:49:32;;;;;;;7.53;6.65;;;;;;;;;;5043750;28;20310;-72
2022/06/17 00:52:04;;;;;;;9.23;6.60;;;;;;;;;;5037782;28;20181;-75
2022/06/17 00:54:42;;;;;;;7.32;6.72;;;;;;;;;;5039752;28;20284;-73
2022/06/17 00:57:17;;;;;;;9.25;6.88;;;;;;;;;;5038967;28;20735;-72
2022/06/17 00:59:42;;;;;;;8.68;6.18;;;;;;;;;;5044485;28;20192;-75
2022/06/17 01:02:08;;;;;;;7.90;7.07;;;;;;;;;;5043533;28;20577;-72
2022/06/17 01:04:45;;;;;;;6.88;6.28;;;;;;;;;;5041577;28;20217;-73
2022/06/17 01:07:20;;;;;;;9.70;7.68;;;;;;;;;;5027233;28;20201;-73
2022/06/17 01:10:01;;;;;;;7.65;6.30;;;;;;;;;;5031382;28;20691;-74
2022/06/17 01:12:46;;;;;;;7.28;6.55;;;;;;;;;;5038958;28;20350;-74
2022/06/17 01:15:14;;;;;;;8.00;7.20;;;;;;;;;;5029143;28;20221;-74
2022/06/17 01:17:40;;;;;;;8.13;6.75;;;;;;;;;;5044437;28;20182;-73
2022/06/17 01:20:06;;;;;;;7.90;7.20;;;;;;;;;;5045768;28;20230;-73
2022/06/17 01:22:36;;;;;;;10.88;8.25;;;;;;;;;;5043215;28;20186;-73
2022/06/17 01:25:07;;;;;;;9.57;8.10;;;;;;;;;;5040355;28;20184;-73
2022/06/17 01:27:34;;;;;;;8.55;7.07;;;;;;;;;;5037680;28;20173;-74
2022/06/17 01:29:59;;;;;;;9.30;7.68;;;;;;;;;;5030911;28;20178;-73
2022/06/17 01:32:27;;;;;;;8.60;7.72;;;;;;;;;;5047021;28;20182;-73
2022/06/17 01:34:53;;;;;;;10.15;7.80;;;;;;;;;;5045080;28;20205;-73
2022/06/17 01:37:18;;;;;;;9.38;8.48;;;;;;;;;;5048844;28;20197;-73
2022/06/17 01:39:43;;;;;;;8.27;7.45;;;;;;;;;;5044025;28;20177;-73
2022/06/17 01:42:09;;;;;;;9.15;8.13;;;;;;;;;;5047241;28;20178;-73
2022/06/17 01:44:35;;;;;;;8.98;7.53;;;;;;;;;;5040952;28;20181;-73
2022/06/17 01:47:05;;;;;;;12.40;8.25;;;;;;;;;;5042285;28;20196;-74
2022/06/17 01:49:40;;;;;;;9.13;8.18;;;;;;;;;;5045355;28;20186;-73
2022/06/17 01:52:14;;;;;;;8.77;7.82;;;;;;;;;;5041350;28;20203;-74
2022/06/17 01:55:00;;;;;;;9.70;8.70;;;;;;;;;;5042341;28;20209;-73
2022/06/17 01:57:28;;;;;;;11.13;8.50;;;;;;;;;;5046099;28;20178;-72
2022/06/17 01:59:56;;;;;;;11.73;8.20;;;;;;;;;;5039097;28;20209;-73
2022/06/17 02:02:22;;;;;;;11.77;9.18;;;;;;;;;;5041573;28;20314;-73
2022/06/17 02:04:50;;;;;;;10.65;8.80;;;;;;;;;;5046327;28;20646;-74
2022/06/17 02:07:15;;;;;;;11.60;9.27;;;;;;;;;;5047848;28;20276;-73
2022/06/17 02:09:41;;;;;;;10.83;8.80;;;;;;;;;;5048004;28;20273;-73
2022/06/17 02:12:07;;;;;;;9.75;8.75;;;;;;;;;;5048185;28;21060;-73
2022/06/17 02:14:33;;;;;;;16.10;10.23;;;;;;;;;;5047074;28;20747;-73
2022/06/17 02:16:58;;;;;;;10.60;8.95;;;;;;;;;;5041875;28;20584;-73
2022/06/17 02:19:25;;;;;;;10.50;9.18;;;;;;;;;;5037442;28;20569;-74
2022/06/17 02:21:53;;;;;;;10.35;9.30;;;;;;;;;;5045972;28;20178;-74
2022/06/17 02:24:19;;;;;;;10.57;9.52;;;;;;;;;;5047715;28;20651;-74
2022/06/17 02:26:46;;;;;;;14.00;9.20;;;;;;;;;;5039786;28;20201;-75
2022/06/17 02:29:12;;;;;;;10.63;9.50;;;;;;;;;;5046437;28;20173;-75
2022/06/17 02:31:38;;;;;;;15.55;10.60;;;;;;;;;;5048382;28;20178;-75
2022/06/17 02:34:04;;;;;;;12.52;9.30;;;;;;;;;;5044794;28;20178;-74
2022/06/17 02:36:44;;;;;;;11.77;9.88;;;;;;;;;;5039257;28;20722;-75
2022/06/17 02:39:11;;;;;;;11.50;10.27;;;;;;;;;;5042670;28;20181;-72
2022/06/17 02:41:38;;;;;;;18.75;9.80;;;;;;;;;;5040492;28;20174;-74
2022/06/17 02:44:16;;;;;;;11.05;9.85;;;;;;;;;;5048777;28;20242;-74
2022/06/17 02:46:43;;;;;;;9.50;8.63;;;;;;;;;;5041978;28;20636;-73
2022/06/17 02:49:13;;;;;;;11.07;9.98;;;;;;;;;;5050672;28;20537;-74
2022/06/17 02:51:39;;;;;;;11.95;10.50;;;;;;;;;;5042521;28;20294;-74
2022/06/17 02:54:06;;;;;;;12.48;11.18;;;;;;;;;;5040212;28;20194;-73
2022/06/17 02:56:32;;;;;;;10.43;9.43;;;;;;;;;;5035669;28;20269;-74
2022/06/17 02:59:15;;;;;;;11.63;10.40;;;;;;;;;;5052385;28;20169;-74
2022/06/17 03:01:40;;;;;;;11.23;10.07;;;;;;;;;;5048560;28;20503;-74
2022/06/17 03:04:11;;;;;;;12.00;10.20;;;;;;;;;;5046760;28;20170;-72
2022/06/17 03:06:38;;;;;;;11.05;10.05;;;;;;;;;;5042345;28;20202;-75
2022/06/17 03:09:29;;;;;;;10.98;9.88;;;;;;;;;;5049374;28;20186;-74
2022/06/17 03:12:02;;;;;;;12.65;10.63;;;;;;;;;;5034519;28;20637;-74
2022/06/17 03:14:30;;;;;;;10.70;9.60;;;;;;;;;;5041124;28;20202;-74
2022/06/17 03:16:58;;;;;;;11.77;10.35;;;;;;;;;;5042627;28;20206;-75
2022/06/17 03:19:23;;;;;;;11.10;10.00;;;;;;;;;;5051454;28;20553;-72
2022/06/17 03:21:49;;;;;;;12.27;11.07;;;;;;;;;;5041900;28;20178;-75
2022/06/17 03:24:19;;;;;;;13.40;10.80;;;;;;;;;;5041670;28;20185;-75
2022/06/17 03:26:56;;;;;;;14.70;11.73;;;;;;;;;;5049888;28;20193;-72
2022/06/17 03:29:22;;;;;;;11.63;10.38;;;;;;;;;;5039548;28;20185;-72
2022/06/17 03:31:50;;;;;;;11.98;9.95;;;;;;;;;;5046698;28;20181;-73
2022/06/17 03:34:30;;;;;;;13.32;10.80;;;;;;;;;;5040507;28;20197;-72
2022/06/17 03:36:59;;;;;;;11.57;10.55;;;;;;;;;;5037750;28;20186;-72
2022/06/17 03:39:39;;;;;;;13.50;11.88;;;;;;;;;;5046295;28;20188;-74
2022/06/17 03:42:04;;;;;;;13.63;11.93;;;;;;;;;;5040024;28;20188;-74
2022/06/17 03:44:34;;;;;;;13.27;12.02;;;;;;;;;;5047289;28;20182;-75
2022/06/17 03:47:03;;;;;;;13.20;11.98;;;;;;;;;;5036110;28;20213;-75
2022/06/17 03:49:49;;;;;;;12.23;10.95;;;;;;;;;;5038380;28;20182;-74
2022/06/17 03:52:19;;;;;;;13.57;12.25;;;;;;;;;;5029871;28;20190;-74
2022/06/17 03:54:44;;;;;;;13.20;11.80;;;;;;;;;;5045822;28;20204;-74
2022/06/17 03:57:10;;;;;;;13.65;12.25;;;;;;;;;;5035263;28;20189;-72
2022/06/17 03:59:36;;;;;;;13.90;12.38;;;;;;;;;;5034983;28;20235;-72
2022/06/17 04:02:10;;;;;;;14.15;11.25;;;;;;;;;;5046482;28;20262;-72
2022/06/17 04:04:40;;;;;;;12.70;11.40;;;;;;;;;;5041554;28;20192;-73
2022/06/17 04:07:05;;;;;;;16.27;11.85;;;;;;;;;;5044443;28;20678;-74
2022/06/17 04:09:31;;;;;;;14.20;12.73;;;;;;;;;;5033905;28;20184;-73
2022/06/17 04:12:02;;;;;;;15.38;11.98;;;;;;;;;;5044732;28;20193;-72
2022/06/17 04:14:46;;;;;;;14.30;12.05;;;;;;;;;;5048176;28;20686;-73
2022/06/17 04:17:14;;;;;;;13.18;11.50;;;;;;;;;;5042212;28;20331;-73
2022/06/17 04:19:40;;;;;;;15.07;12.88;;;;;;;;;;5041637;28;20184;-72
2022/06/17 04:22:13;;;;;;;20.15;12.95;;;;;;;;;;5036356;28;20644;-74
2022/06/17 04:24:39;;;;;;;13.15;11.77;;;;;;;;;;5035812;28;20190;-74
2022/06/17 04:27:05;;;;;;;14.25;12.27;;;;;;;;;;5041046;28;20204;-73
2022/06/17 04:29:30;;;;;;;14.70;12.00;;;;;;;;;;5044416;28;20197;-72
2022/06/17 04:32:04;;;;;;;15.40;11.57;;;;;;;;;;5037919;28;20177;-74
2022/06/17 04:34:30;;;;;;;12.95;10.93;;;;;;;;;;5038091;28;20223;-72
2022/06/17 04:37:00;;;;;;;12.75;11.55;;;;;;;;;;5038297;28;20190;-72
2022/06/17 04:39:30;;;;;;;11.93;10.77;;;;;;;;;;5036571;28;20178;-72
2022/06/17 04:41:58;;;;;;;12.57;11.20;;;;;;;;;;5037743;28;20287;-72
2022/06/17 04:44:24;;;;;;;16.98;12.13;;;;;;;;;;5040091;28;20178;-75
2022/06/17 04:46:52;;;;;;;13.02;11.05;;;;;;;;;;5042586;28;20223;-74
2022/06/17 04:49:18;;;;;;;11.45;10.35;;;;;;;;;;5042969;28;20209;-72
2022/06/17 04:51:44;;;;;;;12.02;10.93;;;;;;;;;;5043433;28;20237;-71
2022/06/17 04:54:10;;;;;;;11.38;10.35;;;;;;;;;;5041738;28;20304;-74
2022/06/17 04:56:38;;;;;;;12.05;9.93;;;;;;;;;;5041297;28;20225;-72
2022/06/17 04:59:22;;;;;;;11.88;10.68;;;;;;;;;;5037857;28;20574;-73
2022/06/17 05:01:48;;;;;;;12.88;10.68;;;;;;;;;;5039239;28;20174;-74
2022/06/17 05:04:14;;;;;;;10.98;9.85;;;;;;;;;;5042856;28;20176;-73
2022/06/17 05:06:39;;;;;;;10.93;9.82;;;;;;;;;;5042747;28;20240;-73
2022/06/17 05:09:08;;;;;;;10.70;9.30;;;;;;;;;;5043739;28;20555;-73
2022/06/17 05:11:35;;;;;;;11.90;10.00;;;;;;;;;;5045176;28;20189;-73
2022/06/17 05:14:02;;;;;;;13.68;10.38;;;;;;;;;;5041418;28;20174;-73
2022/06/17 05:16:27;;;;;;;10.80;9.70;;;;;;;;;;5041513;28;20201;-73
2022/06/17 05:18:53;;;;;;;11.82;10.68;;;;;;;;;;5044348;28;20180;-72
2022/06/17 05:21:25;;;;;;;11.05;9.90;;;;;;;;;;5043778;28;20248;-74
2022/06/17 05:23:52;;;;;;;11.52;10.18;;;;;;;;;;5049186;28;20227;-73
2022/06/17 05:26:18;;;;;;;12.27;9.52;;;;;;;;;;5047676;28;20570;-72
2022/06/17 05:28:43;;;;;;;11.55;9.07;;;;;;;;;;5041949;28;20166;-72
2022/06/17 05:31:09;;;;;;;13.70;9.80;;;;;;;;;;5032354;28;20182;-73
2022/06/17 05:33:37;;;;;;;11.40;10.20;;;;;;;;;;5039153;28;20186;-72
2022/06/17 05:36:02;;;;;;;11.52;10.02;;;;;;;;;;5046877;28;20206;-72
2022/06/17 05:38:29;;;;;;;13.23;10.50;;;;;;;;;;5041570;28;20213;-73
2022/06/17 05:40:54;;;;;;;11.10;10.05;;;;;;;;;;5039659;28;20170;-73
2022/06/17 05:43:19;;;;;;;11.45;10.35;;;;;;;;;;5040731;28;20667;-73
2022/06/17 05:45:44;;;;;;;12.07;10.77;;;;;;;;;;5047054;28;20208;-73
2022/06/17 05:48:10;;;;;;;11.65;10.43;;;;;;;;;;5033436;28;20213;-73
2022/06/17 05:50:35;;;;;;;12.13;10.77;;;;;;;;;;5043245;28;20652;-73
2022/06/17 05:53:01;;;;;;;10.73;9.63;;;;;;;;;;5049011;28;20423;-73
2022/06/17 05:55:28;;;;;;;13.35;11.32;;;;;;;;;;5044188;28;20218;-73
2022/06/17 05:57:53;;;;;;;15.45;10.93;;;;;;;;;;5043894;28;21019;-73
2022/06/17 06:00:19;;;;;;;11.30;10.20;;;;;;;;;;5046978;28;20248;-74
2022/06/17 06:02:44;;;;;;;11.32;9.75;;;;;;;;;;5050392;28;20201;-73
2022/06/17 06:05:12;;;;;;;10.65;9.65;;;;;;;;;;5038548;28;20290;-73
2022/06/17 06:07:37;;;;;;;11.32;9.88;;;;;;;;;;5033752;28;20186;-74
2022/06/17 06:10:03;;;;;;;12.68;10.85;;;;;;;;;;5045589;28;20303;-74
2022/06/17 06:12:53;;;;;;;12.48;9.40;;;;;;;;;;5045442;28;20262;-74
2022/06/17 06:15:13;;;;;;;10.82;9.75;;;;;;;;;;5044592;28;20210;-74
2022/06/17 06:17:39;;;;;;;9.73;8.73;;;;;;;;;;5040910;28;20282;-73
2022/06/17 06:20:05;;;;;;;13.00;10.52;;;;;;;;;;5043328;28;20210;-73
2022/06/17 06:22:30;;;;;;;10.73;9.60;;;;;;;;;;5031412;28;20252;-73
2022/06/17 06:24:55;;;;;;;13.43;8.87;;;;;;;;;;5039263;28;20174;-73
2022/06/17 06:27:21;;;;;;;10.00;8.95;;;;;;;;;;5040786;28;20983;-73
2022/06/17 06:29:46;;;;;;;10.02;9.02;;;;;;;;;;5046562;28;20249;-73
2022/06/17 06:32:11;;;;;;;10.13;9.10;;;;;;;;;;5045138;28;20177;-73
2022/06/17 06:34:36;;;;;;;11.68;9.10;;;;;;;;;;5051545;28;20193;-73
2022/06/17 06:37:02;;;;;;;10.80;8.23;;;;;;;;;;5039876;28;20684;-73
2022/06/17 06:39:27;;;;;;;10.00;8.73;;;;;;;;;;5043749;28;20267;-73
2022/06/17 06:41:52;;;;;;;10.50;9.50;;;;;;;;;;5037087;28;20176;-74
2022/06/17 06:44:17;;;;;;;15.80;9.75;;;;;;;;;;5041958;28;20505;-73
2022/06/17 06:46:42;;;;;;;10.23;9.07;;;;;;;;;;5046293;28;20667;-73
2022/06/17 06:49:08;;;;;;;9.45;8.55;;;;;;;;;;5045845;28;20745;-73
2022/06/17 06:51:33;;;;;;;9.15;8.23;;;;;;;;;;5040053;28;20190;-74
2022/06/17 06:53:58;;;;;;;11.98;9.48;;;;;;;;;;5039308;28;20170;-73
2022/06/17 06:56:24;;;;;;;8.90;8.00;;;;;;;;;;5036036;28;20275;-73
2022/06/17 06:58:50;;;;;;;9.55;8.35;;;;;;;;;;5041767;28;20399;-73
2022/06/17 07:01:15;;;;;;;10.25;8.77;;;;;;;;;;5031356;28;20178;-72
2022/06/17 07:03:40;;;;;;;11.00;8.80;;;;;;;;;;5031558;28;20182;-73
2022/06/17 07:06:05;;;;;;;10.23;9.25;;;;;;;;;;5034614;28;20754;-73
2022/06/17 07:08:34;;;;;;;12.45;8.60;;;;;;;;;;5044055;28;20264;-74
2022/06/17 07:10:59;;;;;;;13.15;9.35;;;;;;;;;;5041181;28;20194;-73
2022/06/17 07:13:25;;;;;;;11.27;9.40;;;;;;;;;;5041376;28;20177;-74
2022/06/17 07:15:53;;;;;;;10.68;8.85;;;;;;;;;;5037755;28;20206;-74
2022/06/17 07:18:20;;;;;;;8.75;7.93;;;;;;;;;;5036865;28;20209;-73
2022/06/17 07:20:46;;;;;;;10.60;9.35;;;;;;;;;;5034141;28;20192;-73
2022/06/17 07:23:19;;;;;;;10.48;9.40;;;;;;;;;;5034657;28;20552;-73
2022/06/17 07:25:45;;;;;;;14.15;9.70;;;;;;;;;;5034092;28;20197;-73
2022/06/17 07:28:13;;;;;;;12.65;9.60;;;;;;;;;;5030798;28;20223;-73
2022/06/17 07:30:38;;;;;;;9.40;8.50;;;;;;;;;;5031341;28;20186;-73
2022/06/17 07:33:03;;;;;;;10.87;8.90;;;;;;;;;;5034038;28;20194;-74
2022/06/17 07:35:29;;;;;;;8.25;7.32;;;;;;;;;;5029343;28;20455;-73
2022/06/17 07:40:38;;;;;;;8.63;7.32;;;;;;;;;;5033480;28;20412;-73
2022/06/17 07:43:03;;;;;;;10.70;8.27;;;;;;;;;;5033739;28;20175;-74
2022/06/17 07:45:30;;;;;;;8.65;6.63;;;;;;;;;;5038704;28;20875;-73
2022/06/17 07:47:55;;;;;;;9.45;6.93;;;;;;;;;;5035961;28;20562;-73
2022/06/17 07:50:23;;;;;;;8.80;6.57;;;;;;;;;;5039383;28;20174;-73
2022/06/17 07:52:49;;;;;;;9.57;6.70;;;;;;;;;;5032669;28;20557;-73
2022/06/17 07:55:14;;;;;;;8.45;6.75;;;;;;;;;;5036770;28;20194;-73
2022/06/17 07:57:41;;;;;;;10.38;6.38;;;;;;;;;;5037164;28;20707;-73
2022/06/17 08:00:07;;;;;;;6.00;5.22;;;;;;;;;;5017176;28;20182;-73
2022/06/17 08:02:33;;;;;;;8.07;6.18;;;;;;;;;;5019758;28;20176;-73
2022/06/17 08:04:58;;;;;;;6.72;5.05;;;;;;;;;;5020259;28;20182;-73
2022/06/17 08:07:23;;;;;;;7.20;5.22;;;;;;;;;;5021820;28;20216;-73
2022/06/17 08:09:48;;;;;;;7.67;5.07;;;;;;;;;;5018268;28;20174;-72
2022/06/17 08:12:14;;;;;;;8.10;5.13;;;;;;;;;;5027653;28;20526;-72
2022/06/17 08:14:43;;;;;;;5.63;4.68;;;;;;;;;;5023273;28;20833;-72
2022/06/17 08:17:14;;;;;;;8.93;4.68;;;;;;;;;;5021604;28;20259;-73
2022/06/17 08:19:39;;;;;;;6.65;4.63;;;;;;;;;;5019723;28;20182;-73
2022/06/17 08:22:04;;;;;;;6.45;5.32;;;;;;;;;;5021132;28;20274;-73
2022/06/17 08:24:29;;;;;;;5.80;4.63;;;;;;;;;;5021121;28;20519;-73
2022/06/17 08:26:55;;;;;;;7.22;4.47;;;;;;;;;;5020684;28;20939;-74
2022/06/17 08:29:20;;;;;;;6.18;3.63;;;;;;;;;;5017168;28;20178;-73
2022/06/17 08:31:45;;;;;;;5.68;4.40;;;;;;;;;;5021397;28;20186;-74
2022/06/17 08:34:11;;;;;;;4.55;3.78;;;;;;;;;;5020889;28;20177;-74
2022/06/17 08:36:36;;;;;;;4.80;3.73;;;;;;;;;;5020359;28;20205;-73
2022/06/17 08:39:04;;;;;;;5.33;3.67;;;;;;;;;;5019469;28;20496;-74
2022/06/17 08:41:30;;;;;;;4.72;4.07;;;;;;;;;;5024299;28;21058;-74
2022/06/17 08:44:05;;;;;;;6.80;4.55;;;;;;;;;;5021772;28;20185;-74
2022/06/17 08:46:45;;;;;;;4.13;3.72;;;;;;;;;;5022025;28;20771;-73
2022/06/17 08:49:10;;;;;;;7.80;4.20;;;;;;;;;;5021856;28;20201;-73
2022/06/17 08:51:59;;;;;;;6.20;3.70;;;;;;;;;;5020731;28;20190;-74
2022/06/17 08:54:33;;;;;;;6.60;3.80;;;;;;;;;;5019500;28;20438;-74
2022/06/17 08:57:19;;;;;;;7.35;3.63;;;;;;;;;;5020118;28;20683;-73
2022/06/17 08:59:44;;;;;;;8.57;3.65;;;;;;;;;;5019567;28;20184;-73
2022/06/17 09:02:21;;;;;;;4.20;3.10;;;;;;;;;;5019934;28;21588;-73
2022/06/17 09:04:53;;;;;;;6.45;3.70;;;;;;;;;;5017169;28;20189;-73
2022/06/17 09:07:30;;;;;;;5.95;3.28;;;;;;;;;;5022671;28;20347;-73
2022/06/17 09:10:07;;;;;;;5.47;3.50;;;;;;;;;;5024439;28;21565;-73
2022/06/17 09:12:38;;;;;;;6.75;3.78;;;;;;;;;;5022616;28;20186;-73
2022/06/17 09:15:17;;;;;;;4.57;3.67;;;;;;;;;;5024614;28;20209;-73
2022/06/17 09:17:47;;;;;;;4.47;3.08;;;;;;;;;;5022173;28;20193;-73
2022/06/17 09:20:15;;;;;;;7.57;3.78;;;;;;;;;;5019430;28;20706;-73
2022/06/17 09:22:44;;;;;;;3.63;2.17;;;;;;;;;;5019807;28;20201;-73
2022/06/17 09:25:12;;;;;;;6.00;2.05;;;;;;;;;;5018044;28;20268;-73
2022/06/17 09:27:38;;;;;;;6.10;2.28;;;;;;;;;;5019858;28;20177;-73
2022/06/17 09:30:08;;;;;;;3.75;2.00;;;;;;;;;;5018471;28;20184;-73
2022/06/17 09:32:48;;;;;;;4.93;2.40;;;;;;;;;;5023104;28;20180;-73
2022/06/17 09:35:20;;;;;;;4.30;2.80;;;;;;;;;;5019635;28;20198;-73
2022/06/17 09:37:48;;;;;;;4.55;2.90;;;;;;;;;;5026918;28;20178;-74
2022/06/17 09:40:16;;;;;;;3.80;2.55;;;;;;;;;;5018817;28;20181;-73
2022/06/17 09:42:47;;;;;;;5.40;2.63;;;;;;;;;;5022783;28;20202;-73
2022/06/17 09:45:15;;;;;;;5.60;2.78;;;;;;;;;;5028317;28;20227;-73
2022/06/17 09:47:40;;;;;;;4.35;3.30;;;;;;;;;;5020504;28;20193;-73
2022/06/17 09:50:11;;;;;;;6.30;3.00;;;;;;;;;;5020608;28;20531;-73
2022/06/17 09:52:52;;;;;;;6.50;3.05;;;;;;;;;;5020639;28;20189;-73
2022/06/17 09:55:21;;;;;;;4.22;2.78;;;;;;;;;;5025665;28;20216;-73
2022/06/17 09:57:52;;;;;;;6.65;2.55;;;;;;;;;;5022622;28;20621;-74
2022/06/17 10:00:19;;;;;;;4.78;2.85;;;;;;;;;;5023034;28;20590;-73
2022/06/17 10:02:59;;;;;;;5.35;2.60;;;;;;;;;;5023258;28;20266;-73
2022/06/17 10:05:31;;;;;;;10.70;3.28;;;;;;;;;;5038529;28;20849;-73
2022/06/17 10:07:56;;;;;;;4.88;3.08;;;;;;;;;;5023772;28;20702;-73
2022/06/17 10:10:39;;;;;;;4.80;3.10;;;;;;;;;;5018890;28;20936;-73
2022/06/17 10:13:04;;;;;;;4.18;2.25;;;;;;;;;;5035592;28;20833;-73
2022/06/17 10:15:40;;;;;;;6.13;2.97;;;;;;;;;;5023162;28;20297;-73
2022/06/17 10:18:32;;;;;;;5.90;3.10;;;;;;;;;;5021361;28;20212;-73
2022/06/17 10:21:16;;;;;;;4.30;2.70;;;;;;;;;;5020134;28;20196;-73
2022/06/17 10:23:41;;;;;;;4.63;2.90;;;;;;;;;;5021320;28;20181;-73
2022/06/17 10:26:19;;;;;;;5.10;2.73;;;;;;;;;;5021108;28;20666;-74
2022/06/17 10:29:02;;;;;;;5.82;3.03;;;;;;;;;;5023394;28;20173;-73
2022/06/17 10:31:27;;;;;;;4.93;3.05;;;;;;;;;;5024374;28;20257;-73
2022/06/17 10:33:54;;;;;;;5.10;2.50;;;;;;;;;;5027217;28;20635;-73
2022/06/17 10:36:19;;;;;;;5.07;2.75;;;;;;;;;;5020819;28;21184;-73
2022/06/17 10:38:46;;;;;;;7.00;2.75;;;;;;;;;;5022113;28;20186;-74
2022/06/17 10:41:12;;;;;;;5.07;2.80;;;;;;;;;;5020307;28;20186;-73
2022/06/17 10:43:41;;;;;;;6.03;3.00;;;;;;;;;;5019657;28;20174;-74
2022/06/17 10:46:10;;;;;;;5.53;3.08;;;;;;;;;;5026662;28;20209;-74
2022/06/17 10:48:43;;;;;;;4.25;3.30;;;;;;;;;;5020753;28;20194;-73
2022/06/17 10:51:09;;;;;;;4.35;2.67;;;;;;;;;;5020287;28;20787;-73
2022/06/17 10:53:38;;;;;;;6.35;2.45;;;;;;;;;;5020001;28;20186;-73
2022/06/17 10:56:09;;;;;;;4.35;2.75;;;;;;;;;;5025680;28;20301;-73
2022/06/17 10:58:35;;;;;;;4.90;2.40;;;;;;;;;;5024282;28;20170;-73
2022/06/17 11:01:07;;;;;;;5.45;2.63;;;;;;;;;;5022291;28;20557;-74
2022/06/17 11:03:33;;;;;;;5.13;2.47;;;;;;;;;;5022081;28;20805;-73
2022/06/17 11:06:03;;;;;;;3.83;2.23;;;;;;;;;;5023705;28;20205;-73
2022/06/17 11:08:31;;;;;;;3.83;2.42;;;;;;;;;;5033450;28;20289;-73
2022/06/17 11:10:57;;;;;;;3.35;2.20;;;;;;;;;;5044729;28;20470;-72
2022/06/17 11:13:23;;;;;;;4.78;2.30;;;;;;;;;;5044789;28;20548;-73
2022/06/17 11:15:50;;;;;;;3.38;2.00;;;;;;;;;;5047694;28;20243;-73
2022/06/17 11:18:19;;;;;;;5.20;2.25;;;;;;;;;;5045696;28;20177;-73
2022/06/17 11:20:56;;;;;;;4.55;1.80;;;;;;;;;;5030535;28;20554;-74
2022/06/17 11:23:24;;;;;;;2.55;1.92;;;;;;;;;;5048155;28;20172;-73
2022/06/17 11:25:53;;;;;;;2.80;2.10;;;;;;;;;;5043210;28;20206;-73
2022/06/17 11:28:18;;;;;;;4.78;2.13;;;;;;;;;;5033328;28;20178;-73
2022/06/17 11:30:49;;;;;;;3.17;1.93;;;;;;;;;;5021760;28;20201;-73
2022/06/17 11:33:22;;;;;;;2.92;1.92;;;;;;;;;;5020250;28;20481;-73
2022/06/17 11:35:56;;;;;;;3.00;1.95;;;;;;;;;;5021622;28;20216;-73
2022/06/17 11:38:24;;;;;;;2.13;1.88;;;;;;;;;;5019440;28;20175;-73
2022/06/17 11:40:51;;;;;;;4.65;2.10;;;;;;;;;;5019388;28;20218;-73
2022/06/17 11:43:25;;;;;;;4.57;2.10;;;;;;;;;;5023272;28;20638;-73
2022/06/17 11:45:50;;;;;;;3.35;2.28;;;;;;;;;;5021604;28;20700;-74
2022/06/17 11:48:18;;;;;;;2.73;1.60;;;;;;;;;;5021123;28;20182;-73
2022/06/17 11:50:59;;;;;;;2.72;1.67;;;;;;;;;;5023034;28;20417;-72
2022/06/17 11:53:25;;;;;;;2.95;1.77;;;;;;;;;;5017877;28;20551;-73
2022/06/17 11:55:50;;;;;;;3.47;2.05;;;;;;;;;;5021060;28;20211;-73
2022/06/17 11:58:17;;;;;;;5.18;2.40;;;;;;;;;;5019624;28;20165;-72
2022/06/17 12:00:48;;;;;;;8.15;1.65;;;;;;;;;;5020286;28;20192;-73
2022/06/17 12:03:14;;;;;;;4.05;1.92;;;;;;;;;;5023530;28;20182;-73
2022/06/17 12:05:40;;;;;;;3.75;2.13;;;;;;;;;;5020211;28;20232;-73
2022/06/17 12:08:18;;;;;;;2.40;1.67;;;;;;;;;;5022922;28;20308;-73
2022/06/17 12:10:49;;;;;;;2.10;1.60;;;;;;;;;;5018182;28;20192;-72
2022/06/17 12:13:36;;;;;;;3.85;1.90;;;;;;;;;;5027318;28;20174;-72
2022/06/17 12:16:22;;;;;;;3.03;1.88;;;;;;;;;;5010973;28;20569;-72
2022/06/17 12:18:48;;;;;;;2.70;1.90;;;;;;;;;;5021010;28;20237;-73
2022/06/17 12:21:19;;;;;;;5.65;1.70;;;;;;;;;;5019548;28;20174;-72
2022/06/17 12:24:11;;;;;;;2.90;1.83;;;;;;;;;;5023020;28;20174;-72
2022/06/17 12:26:56;;;;;;;5.07;1.92;;;;;;;;;;5017763;28;20348;-72
2022/06/17 12:29:40;;;;;;;2.55;1.58;;;;;;;;;;5021636;28;20552;-71
2022/06/17 12:32:05;;;;;;;1.65;1.55;;;;;;;;;;5021944;28;20180;-72
2022/06/17 12:34:49;;;;;;;4.05;1.67;;;;;;;;;;5019546;28;20257;-73
2022/06/17 12:37:35;;;;;;;5.63;1.83;;;;;;;;;;5024713;28;20233;-73
2022/06/17 12:40:00;;;;;;;1.92;1.63;;;;;;;;;;5019356;28;20710;-72
2022/06/17 12:42:25;;;;;;;1.60;1.50;;;;;;;;;;5021753;28;20185;-72
2022/06/17 12:45:11;;;;;;;2.17;1.70;;;;;;;;;;5022090;28;20178;-72
2022/06/17 12:47:39;;;;;;;3.70;1.83;;;;;;;;;;5017999;28;20429;-72
2022/06/17 12:53:25;;;;;;;4.45;2.30;;;;;;;;;;5022097;28;20531;-72
2022/06/17 12:56:00;;;;;;;4.85;1.67;;;;;;;;;;5015530;28;20230;-71
2022/06/17 12:58:30;;;;;;;2.28;1.60;;;;;;;;;;5025944;28;20194;-73
2022/06/17 13:01:00;;;;;;;3.45;1.75;;;;;;;;;;5021166;28;20211;-73
2022/06/17 13:03:43;;;;;;;4.82;1.63;;;;;;;;;;5023219;28;20615;-73
2022/06/17 13:06:20;;;;;;;2.85;1.58;;;;;;;;;;5018919;28;20896;-73
2022/06/17 13:08:54;;;;;;;2.70;1.60;;;;;;;;;;5025167;28;20181;-72
2022/06/17 13:11:28;;;;;;;2.15;1.50;;;;;;;;;;5027067;28;20197;-74
2022/06/17 13:14:02;;;;;;;3.00;1.30;;;;;;;;;;5023800;28;20182;-72
2022/06/17 13:16:34;;;;;;;2.05;1.50;;;;;;;;;;5022712;28;20200;-72
2022/06/17 13:19:02;;;;;;;3.63;1.45;;;;;;;;;;5021928;28;20173;-73
2022/06/17 13:21:30;;;;;;;4.10;1.40;;;;;;;;;;5019048;28;20260;-72
2022/06/17 13:23:58;;;;;;;2.88;1.80;;;;;;;;;;5029098;28;20191;-72
2022/06/17 13:26:27;;;;;;;2.33;1.50;;;;;;;;;;5023700;28;20197;-72
2022/06/17 13:28:52;;;;;;;5.82;1.70;;;;;;;;;;5023089;28;20181;-72
2022/06/17 13:31:21;;;;;;;3.10;1.50;;;;;;;;;;5029238;28;20273;-72
2022/06/17 13:33:49;;;;;;;2.50;1.23;;;;;;;;;;5021925;28;20189;-72
2022/06/17 13:36:20;;;;;;;4.07;1.70;;;;;;;;;;5025259;28;20631;-71
2022/06/17 13:38:51;;;;;;;2.80;1.80;;;;;;;;;;5023547;28;20169;-72
2022/06/17 13:41:23;;;;;;;4.10;1.40;;;;;;;;;;5025330;28;20732;-72
2022/06/17 13:43:59;;;;;;;4.38;1.70;;;;;;;;;;5024274;28;20314;-70
2022/06/17 13:46:34;;;;;;;2.83;1.63;;;;;;;;;;5025847;28;20212;-71
2022/06/17 13:49:13;;;;;;;4.68;1.40;;;;;;;;;;5023695;28;20272;-70
2022/06/17 13:51:57;;;;;;;3.25;1.73;;;;;;;;;;5025207;28;20234;-70
2022/06/17 13:54:22;;;;;;;3.70;1.48;;;;;;;;;;5020375;28;21466;-71
2022/06/17 13:56:47;;;;;;;4.17;2.27;;;;;;;;;;5022723;28;20280;-70
2022/06/17 13:59:31;;;;;;;3.37;1.40;;;;;;;;;;5023409;28;20243;-70
2022/06/17 14:02:14;;;;;;;5.70;1.90;;;;;;;;;;5024098;28;20433;-68
2022/06/17 14:05:03;;;;;;;3.10;1.90;;;;;;;;;;5023328;28;20714;-69
2022/06/17 14:07:47;;;;;;;2.88;1.63;;;;;;;;;;5023484;28;20185;-70
2022/06/17 14:10:31;;;;;;;4.20;2.35;;;;;;;;;;5023335;28;20173;-69
2022/06/17 14:12:56;;;;;;;3.20;2.20;;;;;;;;;;5021376;28;20237;-70
2022/06/17 14:15:33;;;;;;;7.38;2.00;;;;;;;;;;5023721;28;20317;-70
2022/06/17 14:18:00;;;;;;;5.93;1.88;;;;;;;;;;5026802;28;20260;-69
2022/06/17 14:20:25;;;;;;;4.40;1.83;;;;;;;;;;5022613;28;20276;-70
2022/06/17 14:23:01;;;;;;;2.57;1.60;;;;;;;;;;5021913;28;20186;-70
2022/06/17 14:25:43;;;;;;;7.55;2.20;;;;;;;;;;5023562;28;20205;-69
2022/06/17 14:28:28;;;;;;;7.82;2.10;;;;;;;;;;5025991;28;20625;-71
2022/06/17 14:31:07;;;;;;;3.42;1.95;;;;;;;;;;5023514;28;20296;-71
2022/06/17 14:33:37;;;;;;;5.50;2.03;;;;;;;;;;5025053;28;20533;-71
2022/06/17 14:36:07;;;;;;;4.05;1.80;;;;;;;;;;5020777;28;20577;-71
2022/06/17 14:38:34;;;;;;;4.30;2.00;;;;;;;;;;5017463;28;20606;-71
2022/06/17 14:44:12;;;;;;;2.25;1.70;;;;;;;;;;5027050;28;20199;-72
2022/06/17 14:46:56;;;;;;;5.53;2.00;;;;;;;;;;5016056;28;20208;-70
2022/06/17 14:49:40;;;;;;;5.15;2.10;;;;;;;;;;5019124;28;20182;-72
2022/06/17 14:52:26;;;;;;;4.35;2.10;;;;;;;;;;5020373;28;20173;-71
2022/06/17 14:54:59;;;;;;;5.78;2.03;;;;;;;;;;5020962;28;20709;-71
2022/06/17 14:57:25;;;;;;;6.07;2.55;;;;;;;;;;5022210;28;20195;-71
2022/06/17 15:00:00;;;;;;;7.65;6.93;;;;;;;;;;5031386;28;20227;-71